createdAt,value
2023-03-16T00:10:42.842Z,5
2023-03-16T00:26:06.158Z,6.1
2023-03-16T00:41:29.468Z,3.4
2023-03-16T00:56:52.775Z,1.9
2023-03-16T01:12:16.080Z,4.9
2023-03-16T01:27:39.398Z,1.5
2023-03-16T01:43:02.702Z,3.9
2023-03-16T01:58:25.045Z,3.3
2023-03-16T02:13:47.371Z,1.9
2023-03-16T02:29:09.718Z,4.1
2023-03-16T02:44:32.044Z,3
2023-03-16T02:59:54.389Z,6
2023-03-16T03:15:16.708Z,5.3
2023-03-16T03:30:39.045Z,8.8
2023-03-16T03:46:01.383Z,2.1
2023-03-16T04:01:24.706Z,7
2023-03-16T04:16:48.016Z,4.2
2023-03-16T04:32:11.339Z,8.7
2023-03-16T04:47:34.639Z,2.4
2023-03-16T05:02:57.921Z,3.1
2023-03-16T05:18:21.179Z,5.2
2023-03-16T05:33:44.450Z,4.3
2023-03-16T05:49:07.718Z,3.2
2023-03-16T06:04:31.000Z,6.4
2023-03-16T06:19:54.270Z,6
2023-03-16T06:35:17.541Z,8
2023-03-16T06:50:40.814Z,6.5
2023-03-16T07:06:03.093Z,4.6
2023-03-16T07:21:26.352Z,3.3
2023-03-16T07:36:49.624Z,3.3
2023-03-16T07:52:12.899Z,6.6
2023-03-16T08:07:36.157Z,3.7
2023-03-16T08:22:59.417Z,2.6
2023-03-16T08:38:22.689Z,3.2
2023-03-16T08:53:44.981Z,3.1
2023-03-16T09:09:07.248Z,5.6
2023-03-16T09:24:30.513Z,3.3
2023-03-16T09:39:52.799Z,2.1
2023-03-16T09:55:15.081Z,3
2023-03-16T10:10:38.343Z,9.2
2023-03-16T10:26:01.603Z,3.9
2023-03-16T10:27:25.002Z,5.2
2023-03-16T10:28:48.417Z,5.8
2023-03-16T10:31:35.236Z,5.8
2023-03-16T10:32:58.642Z,6.3
2023-03-16T10:34:22.054Z,4.3
2023-03-16T10:35:45.466Z,4.4
2023-03-16T10:37:08.868Z,9.9
2023-03-16T10:38:32.279Z,5.1
2023-03-16T10:39:55.681Z,4.2
2023-03-16T10:41:18.105Z,9.1
2023-03-16T10:42:41.515Z,8.9
2023-03-16T10:44:04.932Z,7.8
2023-03-16T10:45:28.331Z,7.8
2023-03-16T10:46:51.734Z,8.1
2023-03-16T10:48:15.154Z,4.5
2023-03-16T10:49:38.558Z,5.6
2023-03-16T10:51:01.963Z,5
2023-03-16T10:52:24.396Z,3.1
2023-03-16T10:53:46.826Z,8.4
2023-03-16T10:55:10.239Z,4.6
2023-03-16T10:56:33.650Z,8
2023-03-16T10:57:57.056Z,5
2023-03-16T10:59:20.456Z,6.6
2023-03-16T11:00:43.869Z,5.4
2023-03-16T11:02:07.282Z,6.4
2023-03-16T11:03:30.682Z,2.2
2023-03-16T11:04:54.098Z,5.4
2023-03-16T11:06:17.495Z,8.5
2023-03-16T11:07:40.900Z,4.9
2023-03-16T11:09:04.304Z,5.3
2023-03-16T11:10:27.720Z,2.9
2023-03-16T11:11:50.149Z,4.7
2023-03-16T11:13:13.551Z,3.7
2023-03-16T11:14:36.955Z,4
2023-03-16T11:16:00.378Z,5.8
2023-03-16T11:17:23.787Z,4.4
2023-03-16T11:18:47.185Z,7.7
2023-03-16T11:20:10.590Z,6
2023-03-16T11:21:33.024Z,3
2023-03-16T11:22:55.449Z,2.6
2023-03-16T11:24:17.894Z,5.9
2023-03-16T11:25:40.317Z,3.8
2023-03-16T11:27:02.739Z,4.5
2023-03-16T11:28:25.175Z,6.4
2023-03-16T11:29:48.585Z,4
2023-03-16T11:31:11.985Z,5.8
2023-03-16T11:32:35.396Z,4.4
2023-03-16T11:33:58.802Z,5.9
2023-03-16T11:35:22.226Z,4
2023-03-16T11:36:45.622Z,5.6
2023-03-16T11:38:09.029Z,6.8
2023-03-16T11:39:32.452Z,3.4
2023-03-16T11:40:55.848Z,3.6
2023-03-16T11:42:19.263Z,4.1
2023-03-16T11:43:42.657Z,2.2
2023-03-16T11:45:06.082Z,3.3
2023-03-16T11:46:28.497Z,4.9
2023-03-16T11:47:51.898Z,3.8
2023-03-16T11:49:15.320Z,7.8
2023-03-16T11:50:38.721Z,4.4
2023-03-16T11:52:02.131Z,2.8
2023-03-16T11:53:25.530Z,7.4
2023-03-16T11:54:48.938Z,4.2
2023-03-16T11:56:11.383Z,6.9
2023-03-16T11:57:33.794Z,3.6
2023-03-16T11:58:56.243Z,3.5
2023-03-16T12:00:18.669Z,2.3
2023-03-16T12:01:42.077Z,6.4
2023-03-16T12:03:05.481Z,6.9
2023-03-16T12:04:28.888Z,3.7
2023-03-16T12:05:52.288Z,3.8
2023-03-16T12:07:15.694Z,4.5
2023-03-16T12:08:39.116Z,2.5
2023-03-16T12:10:02.514Z,4.6
2023-03-16T12:11:25.914Z,6.4
2023-03-16T12:12:49.342Z,3.8
2023-03-16T12:14:12.734Z,3.5
2023-03-16T12:15:36.151Z,3.2
2023-03-16T12:16:59.549Z,2.8
2023-03-16T12:18:21.991Z,3.8
2023-03-16T12:19:45.387Z,4.5
2023-03-16T12:21:08.809Z,3.8
2023-03-16T12:22:32.199Z,3.5
2023-03-16T12:23:55.618Z,5.5
2023-03-16T12:25:19.018Z,4.1
2023-03-16T12:26:42.440Z,5.2
2023-03-16T12:28:04.863Z,2.9
2023-03-16T12:29:27.290Z,4.3
2023-03-16T12:30:50.709Z,3.3
2023-03-16T12:32:14.131Z,2.6
2023-03-16T12:33:37.531Z,5.5
2023-03-16T12:35:00.941Z,6.1
2023-03-16T12:36:24.357Z,6.1
2023-03-16T12:37:47.753Z,3.5
2023-03-16T12:39:11.169Z,3.6
2023-03-16T12:40:34.572Z,3.6
2023-03-16T12:41:57.977Z,7
2023-03-16T12:43:21.403Z,3.1
2023-03-16T12:44:44.807Z,4.5
2023-03-16T12:46:08.214Z,4
2023-03-16T12:47:30.644Z,3
2023-03-16T12:48:54.063Z,3.1
2023-03-16T12:50:17.460Z,3.6
2023-03-16T12:51:40.880Z,4.3
2023-03-16T12:53:04.282Z,3.4
2023-03-16T12:54:27.686Z,4.4
2023-03-16T12:55:51.098Z,3.4
2023-03-16T12:57:13.536Z,3.4
2023-03-16T12:58:35.947Z,4.9
2023-03-16T12:59:59.352Z,4.2
2023-03-16T13:01:22.762Z,8.1
2023-03-16T13:02:46.184Z,4.1
2023-03-16T13:04:09.579Z,5.9
2023-03-16T13:05:32.997Z,6.4
2023-03-16T13:06:56.401Z,15.8
2023-03-16T13:08:19.818Z,8.3
2023-03-16T13:09:43.212Z,4.4
2023-03-16T13:11:06.632Z,3
2023-03-16T13:12:29.055Z,3.3
2023-03-16T13:13:52.464Z,6.3
2023-03-16T13:15:15.879Z,6.9
2023-03-16T13:16:39.278Z,8
2023-03-16T13:18:02.693Z,3.1
2023-03-16T13:19:26.111Z,5
2023-03-16T13:20:49.514Z,3.2
2023-03-16T13:22:12.914Z,3.1
2023-03-16T13:23:36.333Z,4.4
2023-03-16T13:24:59.730Z,4.9
2023-03-16T13:26:22.174Z,3.6
2023-03-16T13:27:44.584Z,3.2
2023-03-16T13:29:07.027Z,3.1
2023-03-16T13:30:29.445Z,2.9
2023-03-16T13:31:52.852Z,3.8
2023-03-16T13:33:16.275Z,3.3
2023-03-16T13:34:39.668Z,2.7
2023-03-16T13:36:03.090Z,3.3
2023-03-16T13:37:26.501Z,4.2
2023-03-16T13:38:49.913Z,3.8
2023-03-16T13:40:13.317Z,3.4
2023-03-16T13:41:36.730Z,3.1
2023-03-16T13:43:00.134Z,3.6
2023-03-16T13:44:23.533Z,3.7
2023-03-16T13:45:46.958Z,5.3
2023-03-16T13:47:10.353Z,2.6
2023-03-16T13:48:32.792Z,5.1
2023-03-16T13:49:56.203Z,4.5
2023-03-16T13:51:19.604Z,5.3
2023-03-16T13:52:42.033Z,5.3
2023-03-16T13:54:04.478Z,3
2023-03-16T13:55:26.902Z,3.6
2023-03-16T13:56:49.343Z,4
2023-03-16T13:58:11.761Z,2.9
2023-03-16T13:59:34.187Z,6
2023-03-16T14:00:57.613Z,2.7
2023-03-16T14:02:21.001Z,2.4
2023-03-16T14:03:44.428Z,5.9
2023-03-16T14:05:07.832Z,6.5
2023-03-16T14:06:31.235Z,3.1
2023-03-16T14:07:54.661Z,5
2023-03-16T14:09:18.054Z,2.6
2023-03-16T14:10:41.481Z,3.2
2023-03-16T14:12:04.891Z,5.8
2023-03-16T14:13:28.292Z,5.2
2023-03-16T14:14:51.706Z,7.2
2023-03-16T14:16:15.106Z,3.9
2023-03-16T14:17:37.545Z,4.4
2023-03-16T14:19:00.953Z,4.9
2023-03-16T14:20:24.360Z,3.3
2023-03-16T14:21:47.755Z,3.1
2023-03-16T14:23:11.163Z,5.8
2023-03-16T14:24:34.590Z,5.2
2023-03-16T14:25:57.997Z,3.5
2023-03-16T14:27:20.435Z,4.3
2023-03-16T14:28:42.845Z,5.3
2023-03-16T14:30:05.291Z,4.3
2023-03-16T14:31:27.701Z,2.3
2023-03-16T14:32:51.117Z,3
2023-03-16T14:34:14.532Z,3.7
2023-03-16T14:35:37.927Z,4.9
2023-03-16T14:37:01.351Z,3.9
2023-03-16T14:38:24.755Z,3.2
2023-03-16T14:39:48.171Z,4.4
2023-03-16T14:41:11.560Z,2.9
2023-03-16T14:42:34.967Z,4.3
2023-03-16T14:43:58.386Z,3.6
2023-03-16T14:45:21.787Z,4.5
2023-03-16T14:46:45.199Z,2.8
2023-03-16T14:48:08.612Z,2.9
2023-03-16T14:49:31.040Z,2.7
2023-03-16T14:50:54.442Z,4
2023-03-16T14:52:17.857Z,2.5
2023-03-16T14:53:41.262Z,4.3
2023-03-16T14:55:04.678Z,4.2
2023-03-16T14:56:28.076Z,5.7
2023-03-16T14:57:51.493Z,2.6
2023-03-16T14:59:13.928Z,2.7
2023-03-16T15:00:36.357Z,3.2
2023-03-16T15:01:58.789Z,4.6
2023-03-16T15:03:21.202Z,3.1
2023-03-16T15:04:44.629Z,3.8
2023-03-16T15:06:08.024Z,3.5
2023-03-16T15:07:31.434Z,3.5
2023-03-16T15:08:54.855Z,4.3
2023-03-16T15:10:18.264Z,4.7
2023-03-16T15:11:41.672Z,3.2
2023-03-16T15:13:05.075Z,3.9
2023-03-16T15:14:28.492Z,3.4
2023-03-16T15:15:51.896Z,4.3
2023-03-16T15:17:15.296Z,2.8
2023-03-16T15:18:38.709Z,2.6
2023-03-16T15:20:02.124Z,2
2023-03-16T15:21:24.555Z,3.2
2023-03-16T15:22:47.952Z,4.2
2023-03-16T15:24:11.372Z,2.8
2023-03-16T15:25:34.788Z,4.4
2023-03-16T15:26:58.192Z,2.2
2023-03-16T15:28:21.590Z,2.7
2023-03-16T15:29:44.994Z,3.5
2023-03-16T15:31:07.429Z,2.3
2023-03-16T15:32:30.852Z,3.5
2023-03-16T15:33:53.264Z,3.1
2023-03-16T15:35:16.683Z,4.5
2023-03-16T15:36:40.098Z,4.2
2023-03-16T15:38:03.486Z,2.4
2023-03-16T15:39:26.907Z,4.7
2023-03-16T15:40:50.300Z,2.2
2023-03-16T15:42:13.717Z,4.2
2023-03-16T15:43:37.132Z,3.3
2023-03-16T15:45:00.536Z,3.7
2023-03-16T15:46:23.959Z,4.5
2023-03-16T15:47:47.367Z,3
2023-03-16T15:49:10.780Z,1.9
2023-03-16T15:50:34.178Z,4.1
2023-03-16T15:51:56.608Z,2.6
2023-03-16T15:53:20.019Z,4
2023-03-16T15:54:43.439Z,3.1
2023-03-16T15:56:06.848Z,2.4
2023-03-16T15:57:30.252Z,3.3
2023-03-16T15:58:53.647Z,3.6
2023-03-16T16:00:16.080Z,3.9
2023-03-16T16:01:38.508Z,2.8
2023-03-16T16:03:00.949Z,4.3
2023-03-16T16:04:23.374Z,2.4
2023-03-16T16:05:45.809Z,3.7
2023-03-16T16:07:08.229Z,4.8
2023-03-16T16:08:31.633Z,2.8
2023-03-16T16:09:55.059Z,1.9
2023-03-16T16:11:18.457Z,5.5
2023-03-16T16:12:41.878Z,4.6
2023-03-16T16:14:05.276Z,2.7
2023-03-16T16:15:28.685Z,2.6
2023-03-16T16:16:52.085Z,6.1
2023-03-16T16:18:15.499Z,4.1
2023-03-16T16:19:38.914Z,3.3
2023-03-16T16:21:02.307Z,2.9
2023-03-16T16:22:25.718Z,4.8
2023-03-16T16:23:49.134Z,3.1
2023-03-16T16:25:11.573Z,3.3
2023-03-16T16:26:34.964Z,3.8
2023-03-16T16:27:58.386Z,3.8
2023-03-16T16:29:21.798Z,5.4
2023-03-16T16:30:45.207Z,3.8
2023-03-16T16:32:08.615Z,5.1
2023-03-16T16:33:32.025Z,5.1
2023-03-16T16:34:54.448Z,4.2
2023-03-16T16:36:16.868Z,3.6
2023-03-16T16:37:39.308Z,6.7
2023-03-16T16:39:01.727Z,4.7
2023-03-16T16:40:25.135Z,5.2
2023-03-16T16:41:48.557Z,7.4
2023-03-16T16:43:11.949Z,6.2
2023-03-16T16:44:35.367Z,5.9
2023-03-16T16:45:58.762Z,3.9
2023-03-16T16:47:22.172Z,5.9
2023-03-16T16:48:45.591Z,6.5
2023-03-16T16:50:09.000Z,6.5
2023-03-16T16:51:32.409Z,8.9
2023-03-16T16:52:55.820Z,13.6
2023-03-16T16:54:19.211Z,17.1
2023-03-16T16:55:42.635Z,12.7
2023-03-16T16:57:05.059Z,9.1
2023-03-16T16:58:28.476Z,15.7
2023-03-16T16:59:51.880Z,24.1
2023-03-16T17:01:15.290Z,26.1
2023-03-16T17:02:38.700Z,11.9
2023-03-16T17:04:02.106Z,11.4
2023-03-16T17:05:25.512Z,6.1
2023-03-16T17:06:47.933Z,5
2023-03-16T17:08:10.358Z,9
2023-03-16T17:09:32.805Z,8
2023-03-16T17:10:55.213Z,9.3
2023-03-16T17:12:17.661Z,8.3
2023-03-16T17:13:40.073Z,8.6
2023-03-16T17:15:03.476Z,7
2023-03-16T17:16:26.898Z,12.2
2023-03-16T17:17:50.314Z,16.8
2023-03-16T17:19:13.722Z,10.3
2023-03-16T17:20:37.127Z,8.4
2023-03-16T17:22:00.538Z,7.3
2023-03-16T17:23:23.935Z,8.9
2023-03-16T17:24:47.346Z,7.4
2023-03-16T17:26:10.743Z,7.4
2023-03-16T17:27:34.172Z,5.5
2023-03-16T17:28:57.586Z,6.8
2023-03-16T17:30:20.983Z,5.4
2023-03-16T17:31:43.401Z,6.4
2023-03-16T17:33:06.813Z,7
2023-03-16T17:34:30.216Z,7.8
2023-03-16T17:35:53.630Z,20.4
2023-03-16T17:37:17.043Z,12.9
2023-03-16T17:38:40.442Z,9.7
2023-03-16T17:40:03.845Z,8.5
2023-03-16T17:41:26.301Z,8.3
2023-03-16T17:42:48.788Z,6.5
2023-03-16T17:44:12.231Z,10.1
2023-03-16T17:45:34.720Z,6.5
2023-03-16T17:46:57.198Z,8.2
2023-03-16T17:48:20.635Z,5.5
2023-03-16T17:49:44.104Z,6.2
2023-03-16T17:51:06.560Z,6.2
2023-03-16T17:52:30.024Z,5.3
2023-03-16T17:53:53.479Z,7.8
2023-03-16T17:55:16.915Z,6
2023-03-16T17:56:40.379Z,7.9
2023-03-16T17:58:03.816Z,4.8
2023-03-16T17:59:27.279Z,8.8
2023-03-16T18:00:50.711Z,6
2023-03-16T18:02:14.177Z,6.3
2023-03-16T18:03:37.612Z,5.7
2023-03-16T18:05:01.072Z,5.5
2023-03-16T18:06:24.527Z,7.1
2023-03-16T18:07:47.973Z,8.3
2023-03-16T18:09:10.445Z,6.2
2023-03-16T18:10:33.882Z,5
2023-03-16T18:11:57.331Z,8.1
2023-03-16T18:13:20.780Z,5.1
2023-03-16T18:14:43.268Z,6.2
2023-03-16T18:16:05.723Z,5.3
2023-03-16T18:17:29.191Z,5.4
2023-03-16T18:18:52.643Z,6.3
2023-03-16T18:20:16.080Z,5.9
2023-03-16T18:21:39.548Z,8.8
2023-03-16T18:23:02.999Z,7
2023-03-16T18:24:26.448Z,5
2023-03-16T18:25:49.891Z,4.6
2023-03-16T18:27:13.343Z,6.9
2023-03-16T18:28:36.785Z,8.2
2023-03-16T18:30:00.238Z,6
2023-03-16T18:31:23.701Z,5.3
2023-03-16T18:32:47.145Z,6.4
2023-03-16T18:34:09.621Z,4.8
2023-03-16T18:35:33.064Z,5.4
2023-03-16T18:38:18.998Z,9.4
2023-03-16T18:39:41.471Z,5.9
2023-03-16T18:41:03.951Z,6.5
2023-03-16T18:42:26.416Z,9.7
2023-03-16T18:43:48.891Z,8.7
2023-03-16T18:45:11.373Z,6.3
2023-03-16T18:46:33.818Z,5.7
2023-03-16T18:47:57.272Z,8.7
2023-03-16T18:49:20.731Z,7.4
2023-03-16T18:50:44.186Z,6.8
2023-03-16T18:52:07.627Z,6.5
2023-03-16T18:53:31.079Z,6.6
2023-03-16T18:54:54.539Z,7.2
2023-03-16T18:56:17.982Z,8.9
2023-03-16T18:57:41.427Z,8.3
2023-03-16T18:59:04.880Z,5.2
2023-03-16T19:00:28.344Z,8.1
2023-03-16T19:01:51.785Z,7.6
2023-03-16T19:03:15.231Z,7.2
2023-03-16T19:04:37.700Z,6.4
2023-03-16T19:06:01.162Z,7.5
2023-03-16T19:07:24.599Z,8.8
2023-03-16T19:08:48.050Z,7.7
2023-03-16T19:10:11.496Z,6.7
2023-03-16T19:11:34.957Z,9.3
2023-03-16T19:12:58.396Z,7.1
2023-03-16T19:14:20.883Z,8
2023-03-16T19:15:43.351Z,7.2
2023-03-16T19:17:05.833Z,7.9
2023-03-16T19:18:28.283Z,7.4
2023-03-16T19:19:51.742Z,6.7
2023-03-16T19:21:15.197Z,6.7
2023-03-16T19:22:38.634Z,8.5
2023-03-16T19:24:02.091Z,6.7
2023-03-16T19:25:25.533Z,9.6
2023-03-16T19:40:48.845Z,5.1
2023-03-16T19:56:12.132Z,4.2
2023-03-16T20:11:35.437Z,11
2023-03-16T20:26:58.746Z,9.7
2023-03-16T20:42:22.061Z,7.4
2023-03-16T20:57:45.365Z,6
2023-03-16T21:13:08.657Z,7.9
2023-03-16T21:28:30.982Z,4.4
2023-03-16T21:43:54.299Z,4.6
2023-03-16T21:59:17.000Z,6.2
2023-03-16T22:14:40.898Z,6.5
2023-03-16T22:30:04.212Z,7.6
2023-03-16T22:45:27.527Z,5.9
2023-03-16T23:00:50.824Z,4.9
2023-03-16T23:16:13.162Z,3.6
2023-03-16T23:31:35.482Z,3
2023-03-16T23:46:58.781Z,2.7
